Time;durP1;ratioP1;P1;durP2;ratioP2;P2;SDS_P1;SDS_P2;PMS_P1;PMS_P2;Temp;Humidity;BMP_temperature;BMP_pressure;BME280_temperature;BME280_humidity;BME280_pressure;Samples;Min_cycle;Max_cycle;Signal;HPM_P1;HPM_P2
2022/12/20 06:29:00;;;;;;;35.05;13.85;;;;;;;-7.57;100.00;102220.84;1716298;82;21150;-46
2022/12/20 06:31:26;;;;;;;30.32;13.83;;;;;;;-7.53;100.00;102219.16;1703001;82;21016;-38
2022/12/20 06:33:54;;;;;;;34.18;14.60;;;;;;;-7.48;100.00;102209.44;1674889;84;21320;-38
2022/12/20 06:36:22;;;;;;;33.78;13.93;;;;;;;-7.45;100.00;102213.20;1676680;83;21160;-47
2022/12/20 06:38:49;;;;;;;32.98;12.47;;;;;;;-7.39;100.00;102214.20;1701643;82;21039;-38
2022/12/20 06:41:59;;;;;;;30.55;13.20;;;;;;;-7.32;100.00;102219.16;1703134;82;21079;-49
2022/12/20 06:44:51;;;;;;;25.37;13.20;;;;;;;-7.28;100.00;102213.64;1699256;82;21098;-47
2022/12/20 06:54:52;;;;;;;31.85;14.63;;;;;;;-7.18;100.00;102212.94;1714530;82;20459;-38
2022/12/20 06:57:57;;;;;;;26.70;14.05;;;;;;;-7.06;100.00;102204.88;1702403;82;21062;-47
2022/12/20 07:00:50;;;;;;;27.45;14.53;;;;;;;-6.97;100.00;102204.89;1697629;82;21361;-47
2022/12/20 07:03:41;;;;;;;34.98;14.73;;;;;;;-6.90;100.00;102200.03;1679457;82;21362;-38
2022/12/20 07:06:18;;;;;;;28.98;15.18;;;;;;;-6.83;100.00;102202.47;1678581;82;21670;-37
2022/12/20 07:08:47;;;;;;;26.85;14.75;;;;;;;-6.73;100.00;102193.31;1673980;81;21066;-37
2022/12/20 07:11:17;;;;;;;33.10;15.05;;;;;;;-6.61;100.00;102193.66;1703921;81;21605;-38
2022/12/20 07:13:51;;;;;;;39.85;15.63;;;;;;;-6.53;100.00;102190.20;1661784;82;21518;-40
2022/12/20 07:16:52;;;;;;;32.70;16.15;;;;;;;-6.44;100.00;102187.64;1701041;81;21759;-49
2022/12/20 07:19:20;;;;;;;32.75;16.55;;;;;;;-6.36;100.00;102176.95;1704980;82;21873;-38
2022/12/20 07:21:50;;;;;;;27.50;13.78;;;;;;;-6.25;100.00;102173.79;1705581;82;21058;-39
2022/12/20 07:24:16;;;;;;;31.90;15.25;;;;;;;-6.17;100.00;102174.14;1699620;82;21082;-38
2022/12/20 07:26:44;;;;;;;27.20;14.40;;;;;;;-6.09;100.00;102175.77;1679917;82;20999;-47
2022/12/20 07:29:12;;;;;;;27.85;13.85;;;;;;;-6.04;100.00;102174.94;1702329;82;20971;-38
2022/12/20 07:31:38;;;;;;;33.95;16.30;;;;;;;-5.95;100.00;102169.45;1708959;82;21095;-38
2022/12/20 07:34:05;;;;;;;30.20;14.55;;;;;;;-5.87;100.00;102164.66;1705195;82;21066;-38
2022/12/20 07:36:32;;;;;;;29.52;14.73;;;;;;;-5.79;100.00;102160.31;1702377;82;21063;-38
2022/12/20 07:38:58;;;;;;;29.90;16.00;;;;;;;-5.72;100.00;102157.20;1698970;82;21075;-48
2022/12/20 07:41:25;;;;;;;32.25;15.65;;;;;;;-5.65;100.00;102149.36;1707890;82;21055;-39
2022/12/20 07:43:51;;;;;;;27.25;14.47;;;;;;;-5.58;100.00;102151.22;1706417;82;21066;-38
2022/12/20 07:46:18;;;;;;;27.07;14.40;;;;;;;-5.48;100.00;102136.02;1699839;82;21036;-38
2022/12/20 07:48:45;;;;;;;39.15;15.08;;;;;;;-5.40;99.85;102136.34;1703685;82;21027;-38
2022/12/20 07:51:31;;;;;;;35.55;14.43;;;;;;;-5.28;99.56;102122.54;1701603;82;21523;-38
2022/12/20 07:54:17;;;;;;;29.98;15.60;;;;;;;-5.19;98.76;102120.84;1704851;82;21109;-48
2022/12/20 07:56:45;;;;;;;31.25;14.03;;;;;;;-5.09;98.66;102105.63;1693412;82;22038;-46
2022/12/20 07:59:14;;;;;;;29.67;14.07;;;;;;;-4.93;98.67;102104.98;1703053;82;21065;-38
2022/12/20 08:41:47;;;;;;;32.00;14.50;;;;;;;-3.17;92.04;102027.25;1795050;79;26025;-38
2022/12/20 08:44:14;;;;;;;23.18;13.20;;;;;;;-3.10;91.88;102039.77;1744166;80;21072;-39
2022/12/20 08:46:41;;;;;;;23.40;11.00;;;;;;;-3.02;90.78;102042.56;1735246;80;20981;-38
2022/12/20 08:49:08;;;;;;;24.80;11.53;;;;;;;-2.97;90.25;102041.28;1733008;82;20985;-37
2022/12/20 08:51:35;;;;;;;24.25;12.63;;;;;;;-2.92;90.58;102033.98;1728163;82;20973;-38
2022/12/20 08:54:01;;;;;;;26.80;12.18;;;;;;;-2.87;90.63;102032.69;1729785;82;21590;-39
2022/12/20 08:56:28;;;;;;;26.00;11.93;;;;;;;-2.79;90.91;102030.34;1693660;83;21017;-42
2022/12/20 08:59:31;;;;;;;23.05;12.33;;;;;;;-2.73;89.90;102015.08;1689933;84;21021;-39
2022/12/20 09:01:58;;;;;;;29.15;13.22;;;;;;;-2.68;89.66;102017.63;1694095;84;21378;-39
2022/12/20 09:04:24;;;;;;;23.38;12.68;;;;;;;-2.58;89.59;102019.66;1688236;84;20977;-39
2022/12/20 09:06:51;;;;;;;20.37;11.30;;;;;;;-2.49;89.64;102019.13;1688720;84;21024;-37
2022/12/20 09:09:18;;;;;;;26.80;12.13;;;;;;;-2.39;89.41;102015.21;1690180;83;21560;-39
2022/12/20 09:11:44;;;;;;;21.12;11.12;;;;;;;-2.30;88.83;102012.10;1687409;84;21606;-38
2022/12/20 09:14:11;;;;;;;17.87;10.30;;;;;;;-2.22;88.39;102013.98;1691254;84;20969;-39
2022/12/20 09:16:37;;;;;;;17.60;9.88;;;;;;;-2.15;88.44;102006.87;1693343;84;21519;-39
2022/12/20 09:19:04;;;;;;;17.75;9.65;;;;;;;-2.07;86.88;102004.92;1689697;84;21900;-49
2022/12/20 09:21:31;;;;;;;23.87;10.13;;;;;;;-2.02;86.27;102001.44;1689404;84;21145;-47
2022/12/20 09:23:58;;;;;;;17.67;9.25;;;;;;;-1.96;84.80;102002.80;1691548;84;21029;-48
2022/12/20 09:26:25;;;;;;;20.05;9.30;;;;;;;-1.88;85.00;101981.18;1692569;84;21044;-48
2022/12/20 09:28:52;;;;;;;16.48;8.43;;;;;;;-1.76;84.23;101972.63;1693270;84;21001;-47
2022/12/20 09:31:22;;;;;;;23.73;9.40;;;;;;;-1.65;83.42;101967.53;1690173;84;21060;-48
2022/12/20 09:33:48;;;;;;;17.12;8.80;;;;;;;-1.54;83.00;101958.08;1694772;84;21055;-48
2022/12/20 09:36:19;;;;;;;15.90;7.92;;;;;;;-1.41;81.91;101960.77;1688858;84;21040;-50
2022/12/20 09:38:46;;;;;;;18.87;8.08;;;;;;;-1.29;81.00;101950.91;1687165;84;20993;-39
2022/12/20 09:41:38;;;;;;;14.68;7.70;;;;;;;-1.23;79.30;101938.11;1683441;83;21069;-40
2022/12/20 09:44:25;;;;;;;10.23;6.22;;;;;;;-1.19;79.25;101936.67;1691841;82;20988;-38
2022/12/20 09:46:57;;;;;;;16.37;7.30;;;;;;;-1.14;79.16;101927.23;1658122;85;21119;-48
2022/12/20 09:49:28;;;;;;;14.65;7.20;;;;;;;-1.06;78.47;101922.64;1680405;84;21803;-40
2022/12/20 09:52:10;;;;;;;18.27;6.85;;;;;;;-1.01;76.65;101915.28;1678188;84;21594;-40
2022/12/20 09:54:57;;;;;;;11.95;6.80;;;;;;;-0.96;76.42;101911.37;1686249;84;21470;-41
2022/12/20 10:01:32;;;;;;;15.75;6.90;;;;;;;-0.80;74.08;101902.69;1668744;85;21053;-48
2022/12/20 10:04:02;;;;;;;14.38;7.00;;;;;;;-0.70;72.87;101892.25;1669362;85;21473;-38
2022/12/20 10:06:41;;;;;;;13.53;6.78;;;;;;;-0.63;72.75;101893.20;1650970;85;21111;-47
2022/12/20 10:09:39;;;;;;;13.45;6.08;;;;;;;-0.57;71.99;101896.59;1676087;84;21001;-38
2022/12/20 10:12:34;;;;;;;15.23;7.12;;;;;;;-0.52;71.39;101884.96;1668465;84;21038;-49
2022/12/20 10:15:31;;;;;;;16.87;7.85;;;;;;;-0.46;71.24;101893.09;1687674;84;21622;-42
2022/12/20 10:18:18;;;;;;;15.53;7.30;;;;;;;-0.40;70.39;101872.95;1667514;85;21374;-38
2022/12/20 10:21:03;;;;;;;14.78;7.22;;;;;;;-0.35;70.20;101862.59;1695397;84;21122;-39
2022/12/20 10:24:06;;;;;;;13.93;6.28;;;;;;;-0.19;69.50;101856.78;1677113;84;21061;-49
2022/12/20 10:26:33;;;;;;;15.55;6.42;;;;;;;0.10;68.62;101842.41;1675553;85;21056;-49
2022/12/20 10:29:00;;;;;;;17.32;6.65;;;;;;;0.74;65.82;101832.44;1665019;85;21461;-49
2022/12/20 10:31:26;;;;;;;17.50;7.87;;;;;;;1.26;63.89;101815.97;1663949;85;21053;-48
2022/12/20 10:33:53;;;;;;;12.30;6.90;;;;;;;1.47;63.24;101798.34;1684637;84;21738;-49
2022/12/20 10:36:31;;;;;;;12.15;6.28;;;;;;;1.42;61.80;101792.41;1676325;84;21115;-40
2022/12/20 10:39:00;;;;;;;23.75;6.72;;;;;;;1.28;62.82;101791.59;1672047;85;20976;-39
2022/12/20 10:41:42;;;;;;;11.90;6.40;;;;;;;1.12;62.71;101775.57;1689034;83;21351;-49
2022/12/20 10:44:25;;;;;;;12.18;6.47;;;;;;;0.99;63.47;101780.38;1677963;84;21134;-39
2022/12/20 10:46:56;;;;;;;20.00;7.58;;;;;;;0.90;63.19;101772.06;1685058;84;21037;-41
2022/12/20 10:49:34;;;;;;;14.15;7.12;;;;;;;0.84;63.03;101774.26;1714758;82;21005;-40
2022/12/20 10:52:11;;;;;;;16.07;6.22;;;;;;;0.76;63.06;101754.86;1717960;81;20986;-39
2022/12/20 10:54:39;;;;;;;14.83;7.12;;;;;;;0.72;63.17;101751.59;1718588;81;21042;-39
2022/12/20 10:57:27;;;;;;;13.68;5.87;;;;;;;0.70;63.01;101758.34;1720577;81;21365;-39
2022/12/20 10:59:57;;;;;;;11.38;5.95;;;;;;;0.68;62.43;101762.09;1700144;81;21903;-37
2022/12/20 11:02:32;;;;;;;10.65;4.90;;;;;;;0.71;62.23;101758.44;1721286;81;21012;-38
2022/12/20 11:05:13;;;;;;;8.83;4.72;;;;;;;0.74;62.22;101763.76;1715074;82;21802;-47
2022/12/20 11:07:54;;;;;;;7.25;4.37;;;;;;;0.80;61.51;101755.52;1720090;82;20950;-49
2022/12/20 11:10:26;;;;;;;7.92;3.75;;;;;;;0.87;60.83;101748.69;1705826;81;21076;-48
2022/12/20 11:12:58;;;;;;;7.33;4.37;;;;;;;0.94;61.02;101752.53;1702666;81;21013;-49
2022/12/20 11:15:35;;;;;;;8.85;3.70;;;;;;;0.98;60.86;101744.17;1705769;83;21030;-48
2022/12/20 11:18:13;;;;;;;7.78;3.90;;;;;;;1.05;60.04;101747.24;1703635;83;20977;-40
2022/12/20 11:21:24;;;;;;;6.15;4.22;;;;;;;1.18;59.75;101744.12;1697890;83;21419;-49
2022/12/20 11:23:59;;;;;;;9.35;3.87;;;;;;;1.36;59.17;101741.35;1608518;87;20980;-39
2022/12/20 11:26:49;;;;;;;6.35;3.98;;;;;;;1.59;58.94;101739.73;1605090;87;21485;-49
2022/12/20 11:29:27;;;;;;;6.90;3.27;;;;;;;1.73;58.20;101739.24;1598471;88;20983;-49
2022/12/20 11:32:34;;;;;;;8.43;3.90;;;;;;;1.80;57.44;101732.38;1609643;87;21226;-49
2022/12/20 11:35:50;;;;;;;9.75;3.50;;;;;;;1.84;57.44;101725.27;1614112;86;21472;-49
2022/12/20 11:38:45;;;;;;;7.08;3.87;;;;;;;2.04;58.26;101720.38;1603489;88;21052;-50
2022/12/20 11:41:35;;;;;;;11.78;4.90;;;;;;;2.42;56.88;101716.46;1609641;87;21072;-49
2022/12/20 11:44:19;;;;;;;10.82;4.95;;;;;;;2.72;55.42;101711.67;1606162;88;21019;-49
2022/12/20 11:47:22;;;;;;;10.98;4.30;;;;;;;3.19;54.77;101701.28;1604948;88;21680;-49
2022/12/20 11:49:58;;;;;;;;;;;;;;;3.73;53.43;101697.53;1618132;87;21101;-50
2022/12/20 11:52:50;;;;;;;10.00;3.83;;;;;;;4.30;50.84;101692.13;1608755;87;20132;-50
2022/12/20 11:55:23;;;;;;;8.75;4.17;;;;;;;4.49;48.20;101692.56;1614912;86;21138;-50
2022/12/20 11:57:58;;;;;;;8.73;3.70;;;;;;;4.37;46.98;101695.88;1653628;82;21042;-49
2022/12/20 12:00:25;;;;;;;11.73;2.77;;;;;;;4.14;46.82;101698.67;1720833;82;21182;-50
2022/12/20 12:03:02;;;;;;;5.67;2.70;;;;;;;3.86;47.23;101690.84;1719762;82;21418;-49
2022/12/20 12:05:43;;;;;;;6.58;2.52;;;;;;;3.62;46.81;101684.46;1722244;82;21507;-51
2022/12/20 12:08:24;;;;;;;4.03;2.67;;;;;;;3.36;46.95;101694.40;1719326;82;21595;-48
2022/12/20 12:10:59;;;;;;;9.00;3.77;;;;;;;3.25;48.45;101690.37;1718802;82;21452;-48
2022/12/20 12:13:27;;;;;;;3.52;2.12;;;;;;;3.53;48.22;101678.40;1729764;81;20950;-49
2022/12/20 12:16:19;;;;;;;5.00;2.67;;;;;;;3.79;47.43;101671.95;1719433;82;21547;-50
2022/12/20 12:18:46;;;;;;;4.20;1.85;;;;;;;3.93;47.41;101676.49;1717754;82;21489;-50
2022/12/20 12:21:26;;;;;;;4.10;2.27;;;;;;;3.81;47.93;101649.59;1719850;82;21037;-49
2022/12/20 12:24:03;;;;;;;3.90;2.27;;;;;;;3.60;47.91;101652.45;1718026;82;20934;-49
2022/12/20 12:26:35;;;;;;;4.62;2.40;;;;;;;3.33;47.73;101648.95;1726148;82;21084;-49
2022/12/20 12:29:12;;;;;;;8.05;2.65;;;;;;;3.07;48.64;101638.96;1720181;82;20974;-49
2022/12/20 12:31:55;;;;;;;3.90;1.95;;;;;;;2.85;49.33;101643.45;1725995;82;21068;-48
2022/12/20 12:34:52;;;;;;;6.28;2.72;;;;;;;2.63;49.16;101631.97;1709692;82;21069;-49
2022/12/20 12:37:42;;;;;;;3.65;2.35;;;;;;;2.44;49.97;101634.38;1718235;82;21029;-49
2022/12/20 12:40:37;;;;;;;2.85;2.25;;;;;;;2.28;50.93;101618.86;1719057;82;21025;-49
2022/12/20 12:43:29;;;;;;;7.78;3.08;;;;;;;2.19;51.13;101617.05;1720626;82;20974;-49
2022/12/20 12:46:00;;;;;;;3.70;2.42;;;;;;;2.11;52.67;101614.95;1721738;82;21097;-51
2022/12/20 12:48:51;;;;;;;6.17;3.40;;;;;;;2.08;52.56;101606.13;1714488;82;20958;-39
2022/12/20 12:51:25;;;;;;;4.90;3.17;;;;;;;2.09;52.91;101603.66;1718895;82;21056;-40
2022/12/20 12:53:56;;;;;;;9.65;4.22;;;;;;;2.07;52.42;101601.78;1714249;82;20994;-39
2022/12/20 12:56:30;;;;;;;12.93;4.47;;;;;;;2.04;52.67;101598.64;1705914;82;21089;-41
2022/12/20 12:59:30;;;;;;;12.73;4.72;;;;;;;2.05;52.55;101595.66;1695866;82;21525;-39
2022/12/20 13:02:18;;;;;;;16.15;5.83;;;;;;;2.10;52.52;101599.37;1697624;84;21088;-40
2022/12/20 13:04:58;;;;;;;10.03;5.75;;;;;;;2.14;52.16;101585.81;1689656;85;21051;-39
2022/12/20 13:07:33;;;;;;;10.05;5.55;;;;;;;2.15;52.09;101588.91;1689681;85;21040;-41
2022/12/20 13:10:23;;;;;;;11.28;5.53;;;;;;;2.08;52.43;101591.93;1670602;85;21130;-39
2022/12/20 13:13:00;;;;;;;12.15;4.87;;;;;;;1.98;52.77;101590.56;1589101;90;21044;-39
2022/12/20 13:15:32;;;;;;;11.20;5.28;;;;;;;1.83;53.59;101580.67;1628739;88;21109;-38
2022/12/20 13:18:00;;;;;;;12.40;6.30;;;;;;;1.71;54.18;101579.98;1629315;88;21077;-39
2022/12/20 13:20:29;;;;;;;13.48;6.22;;;;;;;1.58;53.98;101572.86;1629028;88;21599;-39
2022/12/20 13:23:13;;;;;;;10.88;5.95;;;;;;;1.47;54.41;101568.78;1629275;88;21101;-39
2022/12/20 13:25:48;;;;;;;15.65;8.20;;;;;;;1.38;54.64;101577.27;1629361;88;21659;-41
2022/12/20 13:28:26;;;;;;;12.03;6.50;;;;;;;1.27;55.25;101559.89;1629595;88;21077;-39
2022/12/20 13:31:04;;;;;;;13.55;6.75;;;;;;;1.23;55.42;101563.52;1633896;87;21074;-41
2022/12/20 13:33:46;;;;;;;9.55;5.45;;;;;;;1.27;55.73;101567.62;1599693;89;21045;-40
2022/12/20 13:36:32;;;;;;;11.85;6.15;;;;;;;1.23;55.96;101559.25;1628484;88;21581;-40
2022/12/20 13:39:22;;;;;;;12.93;6.35;;;;;;;1.15;56.24;101557.01;1644187;86;21052;-40
2022/12/20 13:41:52;;;;;;;13.32;6.05;;;;;;;1.05;56.50;101554.33;1675504;85;21085;-39
2022/12/20 13:44:30;;;;;;;12.68;6.33;;;;;;;0.97;57.13;101563.27;1692457;85;21516;-40
2022/12/20 13:47:32;;;;;;;13.40;6.75;;;;;;;0.93;57.06;101562.59;1682603;85;21136;-40
2022/12/20 13:50:25;;;;;;;12.82;8.05;;;;;;;0.88;57.07;101571.77;1715983;82;21083;-41
2022/12/20 13:52:53;;;;;;;11.65;6.42;;;;;;;0.79;56.90;101556.23;1735052;82;21068;-49
2022/12/20 13:55:38;;;;;;;16.20;7.35;;;;;;;0.71;57.26;101544.61;1746241;82;21121;-49
2022/12/20 13:58:11;;;;;;;14.83;7.92;;;;;;;0.64;58.08;101541.55;1731541;82;21609;-50
2022/12/20 14:00:39;;;;;;;16.65;6.60;;;;;;;0.53;58.65;101532.81;1684186;84;21136;-49
2022/12/20 14:03:10;;;;;;;14.33;6.72;;;;;;;0.45;59.09;101534.42;1676526;85;21056;-49
2022/12/20 14:05:37;;;;;;;18.45;7.30;;;;;;;0.37;59.30;101530.11;1683949;85;21147;-50
2022/12/20 14:08:19;;;;;;;14.87;7.55;;;;;;;0.31;59.29;101522.02;1680907;83;21049;-39
2022/12/20 14:10:45;;;;;;;15.32;7.78;;;;;;;0.27;59.65;101512.31;1689145;85;21112;-49
2022/12/20 14:13:22;;;;;;;17.50;7.47;;;;;;;0.23;59.82;101512.55;1665101;85;21138;-50
2022/12/20 14:15:48;;;;;;;16.35;7.33;;;;;;;0.19;59.70;101513.55;1689693;85;21100;-39
2022/12/20 14:18:24;;;;;;;15.83;7.33;;;;;;;0.17;59.85;101509.57;1690159;85;21040;-49
2022/12/20 14:20:58;;;;;;;18.32;6.78;;;;;;;0.15;59.97;101498.70;1690238;85;21552;-39
2022/12/20 14:23:29;;;;;;;11.68;6.50;;;;;;;0.13;59.93;101504.17;1690061;85;21054;-39
2022/12/20 14:25:58;;;;;;;17.45;6.97;;;;;;;0.14;60.32;101500.80;1689405;85;21654;-48
2022/12/20 14:28:38;;;;;;;11.93;6.28;;;;;;;0.13;60.50;101493.88;1689824;85;21036;-45
2022/12/20 14:31:07;;;;;;;13.80;6.12;;;;;;;0.12;60.76;101498.14;1689625;85;21158;-49
2022/12/20 14:33:38;;;;;;;14.18;6.00;;;;;;;0.12;61.05;101485.27;1691257;83;21032;-40
2022/12/20 14:36:20;;;;;;;18.52;7.10;;;;;;;0.11;61.29;101492.88;1722387;83;21090;-50
2022/12/20 14:38:49;;;;;;;17.55;7.33;;;;;;;0.10;61.50;101486.84;1759488;80;21555;-49
2022/12/20 14:41:37;;;;;;;17.92;8.35;;;;;;;0.09;61.86;101485.06;1722952;83;21607;-49
2022/12/20 14:44:16;;;;;;;18.48;7.87;;;;;;;0.09;62.18;101488.04;1723187;82;21035;-49
2022/12/20 14:47:14;;;;;;;17.35;8.63;;;;;;;0.07;62.50;101491.81;1723131;83;21066;-40
2022/12/20 14:50:03;;;;;;;17.12;7.92;;;;;;;0.08;62.88;101487.55;1733655;82;21111;-40
2022/12/20 14:52:37;;;;;;;15.55;7.47;;;;;;;0.07;63.07;101493.50;1738716;82;21114;-40
2022/12/20 14:55:18;;;;;;;20.17;8.58;;;;;;;0.06;63.17;101483.98;1697231;83;21389;-39
2022/12/20 14:57:51;;;;;;;15.83;8.05;;;;;;;0.04;63.37;101480.44;1722656;83;21038;-48
2022/12/20 15:00:26;;;;;;;22.87;8.03;;;;;;;0.05;63.59;101492.09;1748018;82;21132;-48
2022/12/20 15:03:01;;;;;;;14.10;7.50;;;;;;;0.02;63.54;101485.49;1752897;82;21087;-40
2022/12/20 15:05:39;;;;;;;18.48;6.97;;;;;;;0.01;63.29;101478.98;1752991;81;21581;-49
2022/12/20 15:08:33;;;;;;;16.02;7.65;;;;;;;0.00;63.61;101483.23;1752776;82;21116;-50
2022/12/20 15:11:11;;;;;;;15.58;8.05;;;;;;;-0.01;63.98;101480.14;1753009;81;21028;-39
2022/12/20 15:13:45;;;;;;;12.63;6.90;;;;;;;-0.02;63.95;101477.97;1752829;81;21001;-50
2022/12/20 15:16:19;;;;;;;15.50;7.30;;;;;;;-0.02;63.81;101472.83;1752807;82;20993;-49
2022/12/20 15:18:53;;;;;;;15.38;7.33;;;;;;;-0.02;63.96;101476.69;1752278;81;21361;-50
2022/12/20 15:21:36;;;;;;;13.22;7.58;;;;;;;-0.03;64.12;101472.74;1752719;82;21078;-50
2022/12/20 15:24:08;;;;;;;12.30;6.37;;;;;;;-0.05;64.20;101473.05;1752965;82;21009;-40
2022/12/20 15:26:35;;;;;;;13.90;6.72;;;;;;;-0.05;64.50;101474.34;1725925;82;21579;-49
2022/12/20 15:29:01;;;;;;;12.00;6.25;;;;;;;-0.07;64.44;101472.05;1752827;82;21009;-40
2022/12/20 15:31:28;;;;;;;13.13;6.58;;;;;;;-0.08;64.06;101471.16;1752777;82;21104;-51
2022/12/20 15:33:59;;;;;;;12.03;6.75;;;;;;;-0.08;64.29;101457.42;1752901;82;21048;-41
2022/12/20 15:36:27;;;;;;;11.97;5.65;;;;;;;-0.09;64.26;101458.22;1725791;82;21619;-47
2022/12/20 15:38:55;;;;;;;10.18;5.50;;;;;;;-0.09;64.31;101462.08;1752623;81;21057;-50
2022/12/20 15:41:28;;;;;;;16.57;5.15;;;;;;;-0.11;64.09;101459.42;1751993;81;21642;-49
2022/12/20 15:44:06;;;;;;;9.55;5.60;;;;;;;-0.11;64.20;101458.53;1728778;82;21010;-41
2022/12/20 15:46:33;;;;;;;11.53;4.65;;;;;;;-0.12;64.23;101453.75;1738709;82;20970;-52
2022/12/20 15:49:00;;;;;;;10.85;4.45;;;;;;;-0.13;64.33;101449.41;1738302;82;21037;-49
2022/12/20 15:51:32;;;;;;;6.83;4.22;;;;;;;-0.15;64.33;101437.27;1716296;82;21054;-48
2022/12/20 15:54:00;;;;;;;9.33;5.20;;;;;;;-0.16;64.64;101440.23;1732630;82;20999;-49
2022/12/20 15:56:27;;;;;;;9.38;4.87;;;;;;;-0.18;64.85;101433.20;1721722;82;21534;-49
2022/12/20 15:58:55;;;;;;;6.60;3.87;;;;;;;-0.21;65.18;101433.03;1738947;82;21500;-48
2022/12/20 16:01:26;;;;;;;7.12;4.78;;;;;;;-0.22;65.47;101440.27;1738898;82;21120;-40
